Time;durP1;ratioP1;P1;durP2;ratioP2;P2;SDS_P1;SDS_P2;PMS_P1;PMS_P2;Temp;Humidity;BMP_temperature;BMP_pressure;BME280_temperature;BME280_humidity;BME280_pressure;Samples;Min_cycle;Max_cycle;Signal;HPM_P1;HPM_P2
2022/09/24 00:01:45;;;;;;;;;;;18.20;88.50;;;;;;5014940;28;19906;-24
2022/09/24 00:04:11;;;;;;;;;;;18.20;88.50;;;;;;5013666;28;20390;-24
2022/09/24 00:06:39;;;;;;;;;;;18.20;88.50;;;;;;5013392;28;19912;-24
2022/09/24 00:09:05;;;;;;;;;;;18.20;88.50;;;;;;5014478;28;19937;-24
2022/09/24 00:11:31;;;;;;;;;;;18.20;89.20;;;;;;5014534;28;20363;-24
2022/09/24 00:13:57;;;;;;;;;;;18.20;88.50;;;;;;5014787;28;19912;-24
2022/09/24 00:16:24;;;;;;;;;;;18.20;88.50;;;;;;5014512;28;20256;-24
2022/09/24 00:18:50;;;;;;;;;;;18.20;88.50;;;;;;5014380;28;19905;-24
2022/09/24 00:21:42;;;;;;;;;;;18.20;88.60;;;;;;5014321;28;19917;-24
2022/09/24 00:24:09;;;;;;;;;;;18.20;88.60;;;;;;5013210;28;20337;-23
2022/09/24 00:26:50;;;;;;;;;;;18.20;88.60;;;;;;5014334;28;19949;-24
2022/09/24 00:29:22;;;;;;;;;;;18.20;88.60;;;;;;5014203;28;20324;-24
2022/09/24 00:31:49;;;;;;;;;;;18.20;88.60;;;;;;5014016;28;20382;-24
2022/09/24 00:34:14;;;;;;;;;;;18.20;88.60;;;;;;5014230;28;19912;-24
2022/09/24 00:36:40;;;;;;;;;;;18.20;88.70;;;;;;5013989;28;20004;-23
2022/09/24 00:39:06;;;;;;;;;;;18.20;88.60;;;;;;5014174;28;19992;-24
2022/09/24 00:41:34;;;;;;;;;;;18.20;88.60;;;;;;5013976;28;19952;-24
2022/09/24 00:44:00;;;;;;;;;;;18.20;88.60;;;;;;5014228;28;19905;-24
2022/09/24 00:46:28;;;;;;;;;;;18.20;88.60;;;;;;5013945;28;19917;-24
2022/09/24 00:48:58;;;;;;;;;;;18.20;88.70;;;;;;5013903;28;19905;-24
2022/09/24 00:51:25;;;;;;;;;;;18.20;88.70;;;;;;5022103;22;19921;-26
2022/09/24 00:53:56;;;;;;;;;;;18.20;88.70;;;;;;4994311;28;19953;-26
2022/09/24 00:56:21;;;;;;;;;;;18.20;88.70;;;;;;4994254;28;19953;-26
2022/09/24 00:58:55;;;;;;;;;;;18.20;88.70;;;;;;4994035;28;19948;-26
2022/09/24 01:01:22;;;;;;;;;;;18.20;88.70;;;;;;4994280;28;20345;-26
2022/09/24 01:03:48;;;;;;;;;;;18.20;88.70;;;;;;4994061;28;19945;-26
2022/09/24 01:06:14;;;;;;;;;;;18.20;88.70;;;;;;4994515;28;20374;-26
2022/09/24 01:08:39;;;;;;;;;;;18.20;89.50;;;;;;4993848;28;19906;-26
2022/09/24 01:11:24;;;;;;;;;;;18.20;88.80;;;;;;4993873;28;20377;-26
2022/09/24 01:14:04;;;;;;;;;;;18.10;88.70;;;;;;4993896;28;19985;-26
2022/09/24 01:16:37;;;;;;;;;;;18.20;88.70;;;;;;4993662;28;19948;-26
2022/09/24 01:19:12;;;;;;;;;;;18.10;88.70;;;;;;4993587;28;20317;-26
2022/09/24 01:21:43;;;;;;;;;;;18.10;88.70;;;;;;4993747;28;19917;-26
2022/09/24 01:24:17;;;;;;;;;;;18.10;88.70;;;;;;4993806;28;19906;-26
2022/09/24 01:27:01;;;;;;;;;;;18.10;88.70;;;;;;4993771;28;19906;-26
2022/09/24 01:29:30;;;;;;;;;;;18.10;88.80;;;;;;4993739;28;20376;-28
2022/09/24 01:32:02;;;;;;;;;;;18.10;88.80;;;;;;4993451;28;19910;-26
2022/09/24 01:34:29;;;;;;;;;;;18.10;88.80;;;;;;4993649;28;20000;-26
2022/09/24 01:36:56;;;;;;;;;;;18.10;88.80;;;;;;4993538;28;19952;-26
2022/09/24 01:39:22;;;;;;;;;;;18.10;89.50;;;;;;4993387;28;20393;-26
2022/09/24 01:41:49;;;;;;;;;;;18.10;88.80;;;;;;4975837;28;19909;-26
2022/09/24 01:44:17;;;;;;;;;;;18.10;88.80;;;;;;4993511;28;19977;-26
2022/09/24 01:46:43;;;;;;;;;;;18.10;88.80;;;;;;4993656;28;19905;-26
2022/09/24 01:49:08;;;;;;;;;;;18.10;88.80;;;;;;4993716;28;20434;-26
2022/09/24 01:51:44;;;;;;;;;;;18.10;88.80;;;;;;4994476;28;19957;-26
2022/09/24 01:54:22;;;;;;;;;;;18.10;88.80;;;;;;5001097;28;19986;-26
2022/09/24 01:56:50;;;;;;;;;;;18.00;88.70;;;;;;5003440;28;20305;-26
2022/09/24 01:59:19;;;;;;;;;;;18.00;88.80;;;;;;5003351;28;19910;-26
2022/09/24 02:01:49;;;;;;;;;;;18.00;88.80;;;;;;4999813;28;20008;-26
2022/09/24 02:04:16;;;;;;;;;;;18.10;88.90;;;;;;4993533;28;19953;-26
2022/09/24 02:06:46;;;;;;;;;;;18.00;88.80;;;;;;4993392;28;19905;-26
2022/09/24 02:09:30;;;;;;;;;;;18.10;88.80;;;;;;4993162;28;19910;-25
2022/09/24 02:11:58;;;;;;;;;;;18.10;88.80;;;;;;4992983;28;20290;-26
2022/09/24 02:14:25;;;;;;;;;;;18.00;88.80;;;;;;4993101;28;19912;-26
2022/09/24 02:16:51;;;;;;;;;;;18.00;88.90;;;;;;4993038;28;19906;-26
2022/09/24 02:19:20;;;;;;;;;;;18.00;88.80;;;;;;4992747;28;19986;-26
2022/09/24 02:21:46;;;;;;;;;;;18.00;88.80;;;;;;4993036;28;19913;-26
2022/09/24 02:24:14;;;;;;;;;;;18.00;88.80;;;;;;4992974;28;20279;-26
2022/09/24 02:26:39;;;;;;;;;;;18.00;88.80;;;;;;4993097;28;19913;-26
2022/09/24 02:29:05;;;;;;;;;;;18.00;88.70;;;;;;4996180;28;19906;-26
2022/09/24 02:31:33;;;;;;;;;;;18.00;88.70;;;;;;4996722;28;19917;-26
2022/09/24 02:34:20;;;;;;;;;;;18.00;88.80;;;;;;4996763;28;19906;-26
2022/09/24 02:36:53;;;;;;;;;;;18.00;88.80;;;;;;4996915;28;19905;-26
2022/09/24 02:39:19;;;;;;;;;;;18.00;88.80;;;;;;4996704;28;19910;-26
2022/09/24 02:41:48;;;;;;;;;;;18.00;88.80;;;;;;4996584;28;20271;-25
2022/09/24 02:44:15;;;;;;;;;;;18.00;88.80;;;;;;4996614;28;19928;-26
2022/09/24 02:46:41;;;;;;;;;;;18.00;88.80;;;;;;4996686;28;20041;-26
2022/09/24 02:49:08;;;;;;;;;;;18.00;88.80;;;;;;4996500;28;19964;-25
2022/09/24 02:51:33;;;;;;;;;;;18.00;88.80;;;;;;4996360;28;19913;-25
2022/09/24 02:54:00;;;;;;;;;;;18.00;88.80;;;;;;4996638;28;19905;-26
2022/09/24 02:56:27;;;;;;;;;;;18.00;88.80;;;;;;4996337;28;19912;-26
2022/09/24 02:58:52;;;;;;;;;;;18.00;88.80;;;;;;4996183;28;19906;-26
2022/09/24 03:01:18;;;;;;;;;;;18.00;88.80;;;;;;4996239;28;19937;-26
2022/09/24 03:03:44;;;;;;;;;;;18.00;88.80;;;;;;4996344;28;19906;-26
2022/09/24 03:06:12;;;;;;;;;;;18.00;88.90;;;;;;4996598;28;19960;-26
2022/09/24 03:08:38;;;;;;;;;;;18.00;88.90;;;;;;4996126;28;19906;-26
2022/09/24 03:11:03;;;;;;;;;;;18.00;88.80;;;;;;4996001;28;19912;-26
2022/09/24 03:13:29;;;;;;;;;;;18.00;88.90;;;;;;4995991;28;19984;-26
2022/09/24 03:15:54;;;;;;;;;;;18.00;88.80;;;;;;4996100;28;19909;-26
2022/09/24 03:18:20;;;;;;;;;;;18.00;88.90;;;;;;4996036;28;20286;-26
2022/09/24 03:20:56;;;;;;;;;;;18.00;88.90;;;;;;4995865;28;19905;-26
2022/09/24 03:23:21;;;;;;;;;;;18.00;88.90;;;;;;4996030;28;20355;-26
2022/09/24 03:25:47;;;;;;;;;;;18.00;88.90;;;;;;4995965;28;19945;-26
2022/09/24 03:28:12;;;;;;;;;;;18.00;88.90;;;;;;4995799;28;20287;-26
2022/09/24 03:33:22;;;;;;;;;;;18.00;88.90;;;;;;4995827;28;20012;-26
2022/09/24 03:35:47;;;;;;;;;;;18.00;88.90;;;;;;4995809;28;19976;-26
2022/09/24 03:38:13;;;;;;;;;;;18.00;88.80;;;;;;4995941;28;19906;-26
2022/09/24 03:40:38;;;;;;;;;;;18.00;88.90;;;;;;4995283;28;20075;-26
2022/09/24 03:43:04;;;;;;;;;;;18.00;88.90;;;;;;4995835;28;19905;-26
2022/09/24 03:45:29;;;;;;;;;;;17.90;89.60;;;;;;4995573;28;20352;-26
2022/09/24 03:47:55;;;;;;;;;;;17.90;88.80;;;;;;4995521;28;19961;-26
2022/09/24 03:50:20;;;;;;;;;;;17.90;88.90;;;;;;4995166;28;19914;-26
2022/09/24 03:52:46;;;;;;;;;;;17.90;88.90;;;;;;4995389;28;19913;-26
2022/09/24 03:55:11;;;;;;;;;;;17.90;89.00;;;;;;4995290;28;19910;-26
2022/09/24 03:57:37;;;;;;;;;;;17.90;89.00;;;;;;4995398;28;20383;-26
2022/09/24 04:00:02;;;;;;;;;;;17.90;89.00;;;;;;4995055;28;19989;-26
2022/09/24 04:02:28;;;;;;;;;;;17.90;89.00;;;;;;4995517;28;20370;-26
2022/09/24 04:04:54;;;;;;;;;;;17.90;89.00;;;;;;4995243;28;19953;-26
2022/09/24 04:07:19;;;;;;;;;;;17.90;89.00;;;;;;4995167;28;19905;-26
2022/09/24 04:09:44;;;;;;;;;;;17.90;89.00;;;;;;4977288;28;19905;-26
2022/09/24 04:12:10;;;;;;;;;;;17.90;89.10;;;;;;4994900;28;20438;-26
2022/09/24 04:14:36;;;;;;;;;;;17.90;89.00;;;;;;4995134;28;19968;-26
2022/09/24 04:17:02;;;;;;;;;;;17.90;89.00;;;;;;4995160;28;19906;-26
2022/09/24 04:19:28;;;;;;;;;;;17.90;89.00;;;;;;4994854;28;19905;-26
2022/09/24 04:21:53;;;;;;;;;;;17.90;89.00;;;;;;4994876;28;19913;-26
2022/09/24 04:24:20;;;;;;;;;;;17.90;89.10;;;;;;4994746;28;19905;-26
2022/09/24 04:26:45;;;;;;;;;;;17.90;89.10;;;;;;4994830;28;19906;-26
2022/09/24 04:29:12;;;;;;;;;;;17.90;89.10;;;;;;4994554;28;20252;-26
2022/09/24 04:31:39;;;;;;;;;;;17.90;89.10;;;;;;4994507;28;20351;-26
2022/09/24 04:34:04;;;;;;;;;;;17.90;89.10;;;;;;4994755;28;19912;-26
2022/09/24 04:36:30;;;;;;;;;;;17.90;89.20;;;;;;4994685;28;20011;-26
2022/09/24 04:38:56;;;;;;;;;;;17.90;89.20;;;;;;4994334;28;19953;-26
2022/09/24 04:41:21;;;;;;;;;;;17.90;89.20;;;;;;4994539;28;19913;-26
2022/09/24 04:43:47;;;;;;;;;;;17.90;89.20;;;;;;4994512;28;19912;-26
2022/09/24 04:46:12;;;;;;;;;;;17.90;89.20;;;;;;4994477;28;19914;-26
2022/09/24 04:48:38;;;;;;;;;;;17.90;89.30;;;;;;4994323;28;19988;-26
2022/09/24 04:51:06;;;;;;;;;;;17.90;89.30;;;;;;4993543;28;19913;-26
2022/09/24 04:53:33;;;;;;;;;;;17.90;89.40;;;;;;4994107;28;19932;-26
2022/09/24 04:56:02;;;;;;;;;;;17.80;89.30;;;;;;4994245;28;19913;-26
2022/09/24 04:58:28;;;;;;;;;;;17.90;89.40;;;;;;4994127;28;20327;-26
2022/09/24 05:00:53;;;;;;;;;;;17.80;89.20;;;;;;4994058;28;19906;-26
2022/09/24 05:03:22;;;;;;;;;;;17.80;89.30;;;;;;4994120;28;19958;-26
2022/09/24 05:05:48;;;;;;;;;;;17.90;89.40;;;;;;4994068;28;19905;-26
2022/09/24 05:08:14;;;;;;;;;;;17.80;89.30;;;;;;4993844;28;19906;-26
2022/09/24 05:10:40;;;;;;;;;;;17.80;89.30;;;;;;4993792;28;20397;-26
2022/09/24 05:13:05;;;;;;;;;;;17.90;89.40;;;;;;4993971;28;19960;-26
2022/09/24 05:15:31;;;;;;;;;;;17.80;89.40;;;;;;4994001;28;19906;-26
2022/09/24 05:17:57;;;;;;;;;;;17.80;89.40;;;;;;4993897;28;20331;-26
2022/09/24 05:20:23;;;;;;;;;;;17.90;89.40;;;;;;4993540;28;19910;-26
2022/09/24 05:22:49;;;;;;;;;;;17.80;89.40;;;;;;4993520;28;19909;-26
2022/09/24 05:25:15;;;;;;;;;;;17.80;89.40;;;;;;4993707;28;19913;-26
2022/09/24 05:27:47;;;;;;;;;;;17.80;89.40;;;;;;4993996;28;20344;-26
2022/09/24 05:30:13;;;;;;;;;;;17.80;89.40;;;;;;4993404;28;19932;-26
2022/09/24 05:32:38;;;;;;;;;;;17.80;89.40;;;;;;4993607;28;19913;-26
2022/09/24 05:35:07;;;;;;;;;;;17.80;89.40;;;;;;4993552;28;20422;-26
2022/09/24 05:37:33;;;;;;;;;;;17.80;89.50;;;;;;4993556;28;19912;-26
2022/09/24 05:40:46;;;;;;;;;;;17.80;89.50;;;;;;4993224;28;19909;-26
2022/09/24 05:42:45;;;;;;;;;;;17.80;89.50;;;;;;4993300;28;19988;-26
2022/09/24 05:45:11;;;;;;;;;;;17.80;89.50;;;;;;4993425;28;19992;-26
2022/09/24 05:47:36;;;;;;;;;;;17.80;89.50;;;;;;4993761;28;20000;-26
2022/09/24 05:50:02;;;;;;;;;;;17.80;89.50;;;;;;4992966;28;19910;-27
2022/09/24 05:52:27;;;;;;;;;;;17.80;89.50;;;;;;4993170;28;20394;-27
2022/09/24 05:54:53;;;;;;;;;;;17.90;89.60;;;;;;4993362;28;19906;-27
2022/09/24 05:57:18;;;;;;;;;;;17.80;89.50;;;;;;4993187;28;19910;-27
2022/09/24 05:59:44;;;;;;;;;;;17.80;89.60;;;;;;4975586;28;19941;-27
2022/09/24 06:02:09;;;;;;;;;;;17.80;89.70;;;;;;4992186;28;19942;-27
2022/09/24 06:04:35;;;;;;;;;;;17.70;89.60;;;;;;4993345;28;20467;-27
2022/09/24 06:07:02;;;;;;;;;;;17.80;89.70;;;;;;4993145;28;19906;-27
2022/09/24 06:09:27;;;;;;;;;;;17.70;89.70;;;;;;4992945;28;20280;-27
2022/09/24 06:11:53;;;;;;;;;;;17.70;89.70;;;;;;4992984;28;19941;-27
2022/09/24 06:14:19;;;;;;;;;;;17.70;89.80;;;;;;4993164;28;19916;-27
2022/09/24 06:16:44;;;;;;;;;;;17.70;89.80;;;;;;4993500;28;19906;-27
2022/09/24 06:19:10;;;;;;;;;;;17.70;89.90;;;;;;4992897;28;20382;-27
2022/09/24 06:21:35;;;;;;;;;;;17.70;89.90;;;;;;4992992;28;19912;-27
2022/09/24 06:24:01;;;;;;;;;;;17.70;89.90;;;;;;4993016;28;19910;-27
2022/09/24 06:26:27;;;;;;;;;;;17.70;89.90;;;;;;4992938;28;19957;-27
2022/09/24 06:28:53;;;;;;;;;;;17.70;90.00;;;;;;4992885;28;20298;-27
2022/09/24 06:31:19;;;;;;;;;;;17.70;90.30;;;;;;4992792;28;19910;-27
2022/09/24 06:33:44;;;;;;;;;;;17.70;90.00;;;;;;4992841;28;20323;-27
2022/09/24 06:36:10;;;;;;;;;;;17.70;90.00;;;;;;4992795;28;19906;-27
2022/09/24 06:38:38;;;;;;;;;;;17.70;90.00;;;;;;4992733;28;19906;-27
2022/09/24 06:41:04;;;;;;;;;;;17.70;90.00;;;;;;4992762;28;19910;-27
2022/09/24 06:43:29;;;;;;;;;;;17.70;90.00;;;;;;4992890;28;19913;-27
2022/09/24 06:45:56;;;;;;;;;;;17.70;90.00;;;;;;4992724;28;19905;-27
2022/09/24 06:48:21;;;;;;;;;;;17.70;90.00;;;;;;4992726;28;19909;-27
2022/09/24 06:50:47;;;;;;;;;;;17.70;90.00;;;;;;5013082;22;19922;-23
2022/09/24 06:53:14;;;;;;;;;;;17.70;90.00;;;;;;5012442;28;19964;-24
2022/09/24 06:55:40;;;;;;;;;;;17.60;90.00;;;;;;5012486;28;19916;-24
2022/09/24 06:58:10;;;;;;;;;;;17.70;90.10;;;;;;5012333;28;19905;-24
2022/09/24 07:00:36;;;;;;;;;;;17.70;90.10;;;;;;5012015;28;19905;-24
2022/09/24 07:03:02;;;;;;;;;;;17.70;90.10;;;;;;5012329;28;20003;-24
2022/09/24 07:05:27;;;;;;;;;;;17.70;90.10;;;;;;5012275;28;19937;-24
2022/09/24 07:07:53;;;;;;;;;;;17.70;90.10;;;;;;5010972;28;19959;-24
2022/09/24 07:10:18;;;;;;;;;;;17.70;90.10;;;;;;5012284;28;19913;-24
2022/09/24 07:12:44;;;;;;;;;;;17.70;90.10;;;;;;5012201;28;20008;-24
2022/09/24 07:15:10;;;;;;;;;;;17.70;90.10;;;;;;5015263;28;19913;-24
2022/09/24 07:17:35;;;;;;;;;;;17.60;90.10;;;;;;5015747;28;19906;-24
2022/09/24 07:20:01;;;;;;;;;;;17.60;90.10;;;;;;5015401;28;20289;-24
2022/09/24 07:22:27;;;;;;;;;;;17.70;90.10;;;;;;5015691;28;19937;-24
2022/09/24 07:24:52;;;;;;;;;;;17.70;90.10;;;;;;5015644;28;20019;-24
2022/09/24 07:27:20;;;;;;;;;;;17.70;90.10;;;;;;5015621;28;20337;-24
2022/09/24 07:29:48;;;;;;;;;;;17.70;90.20;;;;;;5015343;28;19992;-24
2022/09/24 07:32:16;;;;;;;;;;;17.70;90.20;;;;;;5015272;28;19936;-24
2022/09/24 07:34:42;;;;;;;;;;;17.70;90.50;;;;;;5015576;28;19905;-24
2022/09/24 07:37:07;;;;;;;;;;;17.70;90.20;;;;;;5015442;28;19905;-24
2022/09/24 07:39:33;;;;;;;;;;;17.70;90.20;;;;;;5016247;28;19912;-24
2022/09/24 07:42:00;;;;;;;;;;;17.70;90.20;;;;;;5015533;28;19906;-24
2022/09/24 07:44:27;;;;;;;;;;;17.70;90.20;;;;;;5015256;28;19905;-24
2022/09/24 07:46:54;;;;;;;;;;;17.70;90.20;;;;;;5015148;28;20281;-24
2022/09/24 07:49:19;;;;;;;;;;;17.70;90.20;;;;;;5014992;28;20264;-24
2022/09/24 07:51:45;;;;;;;;;;;17.70;90.30;;;;;;5014908;28;19913;-24
2022/09/24 07:54:10;;;;;;;;;;;17.70;90.30;;;;;;5015172;28;20358;-24
2022/09/24 07:56:36;;;;;;;;;;;17.70;90.30;;;;;;5015090;28;19905;-24
2022/09/24 07:59:01;;;;;;;;;;;17.70;90.30;;;;;;5014786;28;20424;-24
2022/09/24 08:01:27;;;;;;;;;;;17.70;90.30;;;;;;5015021;28;20382;-24
2022/09/24 08:03:52;;;;;;;;;;;17.70;90.30;;;;;;5014942;28;19906;-24
2022/09/24 08:06:19;;;;;;;;;;;17.60;90.30;;;;;;5015033;28;19995;-24
2022/09/24 08:08:47;;;;;;;;;;;17.70;90.30;;;;;;5014740;28;19906;-24
2022/09/24 08:11:13;;;;;;;;;;;17.70;90.40;;;;;;5015164;28;19905;-24
2022/09/24 08:13:38;;;;;;;;;;;17.60;90.40;;;;;;5014651;28;20282;-24
2022/09/24 08:16:04;;;;;;;;;;;17.60;90.40;;;;;;5014918;28;19960;-24
2022/09/24 08:18:31;;;;;;;;;;;17.60;90.40;;;;;;5014696;28;19909;-23
2022/09/24 08:21:03;;;;;;;;;;;17.60;90.40;;;;;;5014575;28;19913;-23
2022/09/24 08:23:31;;;;;;;;;;;17.60;90.50;;;;;;5014652;28;19967;-23
2022/09/24 08:25:56;;;;;;;;;;;17.60;90.50;;;;;;5013936;28;19906;-23
2022/09/24 08:28:22;;;;;;;;;;;17.60;90.50;;;;;;5014408;28;19905;-23
2022/09/24 08:30:47;;;;;;;;;;;17.70;90.60;;;;;;5014382;28;19913;-23
2022/09/24 08:33:14;;;;;;;;;;;17.60;90.60;;;;;;5014516;28;19932;-24
2022/09/24 08:35:39;;;;;;;;;;;17.60;90.70;;;;;;5014375;28;19963;-23
2022/09/24 08:38:05;;;;;;;;;;;17.60;90.70;;;;;;5014307;28;20011;-23
2022/09/24 08:40:48;;;;;;;;;;;17.60;90.70;;;;;;5014126;28;19905;-24
2022/09/24 08:43:17;;;;;;;;;;;17.60;90.80;;;;;;5014331;28;19909;-24
2022/09/24 08:48:31;;;;;;;;;;;17.60;90.80;;;;;;5014261;28;20113;-24
2022/09/24 08:51:01;;;;;;;;;;;17.60;91.10;;;;;;5012565;28;20012;-24
2022/09/24 08:53:45;;;;;;;;;;;17.60;90.80;;;;;;5014011;28;20388;-24
2022/09/24 08:56:11;;;;;;;;;;;17.60;90.80;;;;;;5014031;28;19913;-24
2022/09/24 08:58:43;;;;;;;;;;;17.60;90.90;;;;;;5013847;28;19951;-23
2022/09/24 09:01:08;;;;;;;;;;;17.60;90.90;;;;;;5013799;28;19905;-24
2022/09/24 09:03:35;;;;;;;;;;;17.60;90.90;;;;;;5013703;28;19905;-24
2022/09/24 09:06:03;;;;;;;;;;;17.60;90.90;;;;;;5013705;28;19943;-24
2022/09/24 09:08:40;;;;;;;;;;;17.60;90.90;;;;;;5013620;28;19906;-24
2022/09/24 09:11:08;;;;;;;;;;;17.60;91.00;;;;;;5013892;28;19913;-24
2022/09/24 09:13:39;;;;;;;;;;;17.60;91.00;;;;;;5012219;28;20008;-24
2022/09/24 09:16:10;;;;;;;;;;;17.60;91.00;;;;;;5013494;28;19909;-24
2022/09/24 09:18:37;;;;;;;;;;;17.60;91.00;;;;;;5013497;28;19905;-24
2022/09/24 09:21:16;;;;;;;;;;;17.60;91.00;;;;;;5013364;28;19905;-24
2022/09/24 09:23:49;;;;;;;;;;;17.50;91.00;;;;;;5013636;28;20321;-24
2022/09/24 09:26:19;;;;;;;;;;;17.60;91.10;;;;;;5013442;28;19906;-24
2022/09/24 09:28:45;;;;;;;;;;;17.50;91.10;;;;;;5013151;28;19961;-24
2022/09/24 09:31:19;;;;;;;;;;;17.50;91.10;;;;;;5013194;28;19906;-24
2022/09/24 09:33:53;;;;;;;;;;;17.50;91.10;;;;;;5013356;28;20347;-24
2022/09/24 09:36:21;;;;;;;;;;;17.60;91.20;;;;;;5013493;28;19932;-24
2022/09/24 09:38:59;;;;;;;;;;;17.50;91.20;;;;;;5013060;28;19988;-24
2022/09/24 09:41:39;;;;;;;;;;;17.50;91.20;;;;;;5013034;28;19906;-23
2022/09/24 09:44:11;;;;;;;;;;;17.60;91.20;;;;;;5013402;28;20274;-24
2022/09/24 09:46:39;;;;;;;;;;;17.50;91.20;;;;;;5013036;28;19905;-24
2022/09/24 09:49:05;;;;;;;;;;;17.50;91.20;;;;;;5012882;28;19906;-24
2022/09/24 09:51:37;;;;;;;;;;;17.50;91.20;;;;;;5012662;28;20271;-23
2022/09/24 09:54:03;;;;;;;;;;;17.50;91.30;;;;;;5013014;28;19913;-23
2022/09/24 09:56:37;;;;;;;;;;;17.60;91.30;;;;;;5013075;28;19952;-23
2022/09/24 09:59:11;;;;;;;;;;;17.50;91.30;;;;;;5012909;28;19990;-23
2022/09/24 10:01:41;;;;;;;;;;;17.60;91.30;;;;;;5012776;28;19906;-23
2022/09/24 10:04:23;;;;;;;;;;;17.50;91.30;;;;;;5012765;28;19942;-24
2022/09/24 10:06:49;;;;;;;;;;;17.60;91.30;;;;;;5013136;28;19992;-24
2022/09/24 10:09:16;;;;;;;;;;;17.60;91.30;;;;;;5012783;28;19948;-23
2022/09/24 10:11:41;;;;;;;;;;;17.60;91.40;;;;;;5012556;28;20359;-24
2022/09/24 10:14:20;;;;;;;;;;;17.50;91.40;;;;;;5012888;28;19953;-23
2022/09/24 10:16:52;;;;;;;;;;;17.50;91.40;;;;;;5012748;28;19972;-23
2022/09/24 10:19:20;;;;;;;;;;;17.50;91.40;;;;;;5012743;28;20429;-23
2022/09/24 10:21:46;;;;;;;;;;;17.50;91.40;;;;;;5012671;28;20413;-24
2022/09/24 10:24:15;;;;;;;;;;;17.50;91.40;;;;;;5013021;28;19909;-24
2022/09/24 10:26:42;;;;;;;;;;;17.60;91.50;;;;;;5012769;28;19909;-23
2022/09/24 10:32:32;;;;;;;;;;;17.50;91.50;;;;;;5012763;28;19954;-24
2022/09/24 10:34:59;;;;;;;;;;;17.60;91.50;;;;;;5012787;28;19906;-24
2022/09/24 10:37:25;;;;;;;;;;;17.60;91.50;;;;;;5012563;28;19992;-24
2022/09/24 10:39:57;;;;;;;;;;;17.60;91.50;;;;;;5012533;28;19972;-23
2022/09/24 10:42:24;;;;;;;;;;;17.60;91.40;;;;;;5012649;28;19917;-23
2022/09/24 10:44:50;;;;;;;;;;;17.60;91.40;;;;;;5012638;28;19909;-23
2022/09/24 10:47:20;;;;;;;;;;;17.60;91.40;;;;;;5011429;28;19909;-23
2022/09/24 10:50:04;;;;;;;;;;;17.60;91.30;;;;;;5016458;28;19959;-23
2022/09/24 10:52:46;;;;;;;;;;;17.60;91.30;;;;;;5020207;28;20383;-23
2022/09/24 10:55:23;;;;;;;;;;;17.70;91.40;;;;;;5016460;28;19912;-23
2022/09/24 10:57:56;;;;;;;;;;;17.70;91.40;;;;;;5016193;28;19909;-24
2022/09/24 11:00:23;;;;;;;;;;;17.70;91.30;;;;;;5015738;28;19967;-24
2022/09/24 11:02:48;;;;;;;;;;;17.70;91.30;;;;;;5016133;28;19941;-24
2022/09/24 11:05:20;;;;;;;;;;;17.70;91.30;;;;;;5016101;28;20311;-23
2022/09/24 11:07:51;;;;;;;;;;;17.70;91.30;;;;;;5016057;28;19905;-24
2022/09/24 11:10:38;;;;;;;;;;;17.70;91.30;;;;;;5014351;28;20004;-24
2022/09/24 11:13:12;;;;;;;;;;;17.70;91.30;;;;;;5015705;28;19913;-24
2022/09/24 11:15:40;;;;;;;;;;;17.70;91.30;;;;;;5015870;28;19959;-24
2022/09/24 11:18:05;;;;;;;;;;;17.70;91.40;;;;;;5015883;28;19931;-24
2022/09/24 11:20:34;;;;;;;;;;;17.70;91.40;;;;;;5015517;28;19992;-24
2022/09/24 11:23:07;;;;;;;;;;;17.70;91.50;;;;;;5014355;28;19915;-24
2022/09/24 11:25:32;;;;;;;;;;;17.70;91.50;;;;;;5015649;28;19956;-24
2022/09/24 11:28:04;;;;;;;;;;;17.70;91.50;;;;;;5015755;28;19948;-24
2022/09/24 11:30:49;;;;;;;;;;;17.60;91.60;;;;;;5015379;28;19947;-24
2022/09/24 11:33:15;;;;;;;;;;;17.60;91.70;;;;;;5010870;28;19916;-23
2022/09/24 11:35:50;;;;;;;;;;;17.60;91.70;;;;;;5015389;28;19906;-24
2022/09/24 11:38:21;;;;;;;;;;;17.60;91.70;;;;;;5014182;28;19905;-23
2022/09/24 11:41:13;;;;;;;;;;;17.60;91.70;;;;;;5015233;28;20374;-24
2022/09/24 11:43:57;;;;;;;;;;;17.60;91.70;;;;;;5006862;28;19967;-24
2022/09/24 11:46:25;;;;;;;;;;;17.60;91.70;;;;;;5015257;28;19915;-24
2022/09/24 11:49:00;;;;;;;;;;;17.60;91.70;;;;;;5015075;28;20358;-23
2022/09/24 11:51:35;;;;;;;;;;;17.60;91.80;;;;;;5015145;28;19920;-23
2022/09/24 11:54:05;;;;;;;;;;;17.60;91.90;;;;;;5015174;28;19958;-23
2022/09/24 11:56:37;;;;;;;;;;;17.60;91.90;;;;;;5015033;28;19916;-23
2022/09/24 11:59:13;;;;;;;;;;;17.60;91.90;;;;;;5013451;28;19906;-24
2022/09/24 12:01:46;;;;;;;;;;;17.60;92.00;;;;;;5014871;28;19905;-24
2022/09/24 12:04:26;;;;;;;;;;;17.60;92.00;;;;;;5014971;28;19913;-24
2022/09/24 12:06:53;;;;;;;;;;;17.60;91.90;;;;;;5014801;28;20270;-24
2022/09/24 12:09:22;;;;;;;;;;;17.50;91.90;;;;;;5014694;28;20355;-24
2022/09/24 12:11:51;;;;;;;;;;;17.60;92.00;;;;;;5014534;28;19905;-24
2022/09/24 12:14:25;;;;;;;;;;;17.60;92.10;;;;;;5015050;28;20272;-24
2022/09/24 12:16:57;;;;;;;;;;;17.60;92.10;;;;;;5014718;28;19941;-24
2022/09/24 12:19:22;;;;;;;;;;;17.50;92.00;;;;;;5014456;28;19956;-24
2022/09/24 12:21:50;;;;;;;;;;;17.50;92.00;;;;;;5014517;28;19999;-24
2022/09/24 12:24:15;;;;;;;;;;;17.50;92.00;;;;;;5014966;28;20177;-24
2022/09/24 12:26:41;;;;;;;;;;;17.50;92.00;;;;;;5014723;28;19988;-24
2022/09/24 12:35:06;;;;;;;;;;;17.50;92.00;;;;;;5014701;28;20404;-24
2022/09/24 12:37:34;;;;;;;;;;;17.60;92.00;;;;;;5014538;28;19912;-24
2022/09/24 12:40:00;;;;;;;;;;;17.60;92.00;;;;;;5014104;28;19932;-24
2022/09/24 12:42:29;;;;;;;;;;;17.60;92.00;;;;;;5014064;28;20314;-24
2022/09/24 12:44:57;;;;;;;;;;;17.60;92.00;;;;;;5014391;28;19905;-24
2022/09/24 12:47:27;;;;;;;;;;;17.60;92.00;;;;;;5014107;28;19952;-23
2022/09/24 12:49:55;;;;;;;;;;;17.60;92.10;;;;;;5014001;28;20362;-24
2022/09/24 12:52:26;;;;;;;;;;;17.60;92.10;;;;;;5014306;28;19921;-23
2022/09/24 12:54:57;;;;;;;;;;;17.60;92.00;;;;;;5013816;28;19913;-24
2022/09/24 12:57:24;;;;;;;;;;;17.60;92.10;;;;;;5014135;28;19916;-24
2022/09/24 12:59:52;;;;;;;;;;;17.60;92.20;;;;;;5013837;28;19996;-23
2022/09/24 13:02:20;;;;;;;;;;;17.60;92.20;;;;;;5013963;28;19906;-24
2022/09/24 13:04:50;;;;;;;;;;;17.60;92.20;;;;;;5013783;28;19992;-23
2022/09/24 13:07:26;;;;;;;;;;;17.60;92.20;;;;;;5013706;28;20363;-24
2022/09/24 13:09:52;;;;;;;;;;;17.60;92.20;;;;;;5013774;28;19906;-24
2022/09/24 13:12:17;;;;;;;;;;;17.60;92.20;;;;;;5012889;28;19909;-24
2022/09/24 13:14:53;;;;;;;;;;;17.60;92.20;;;;;;5013667;28;19929;-24
2022/09/24 13:17:19;;;;;;;;;;;17.60;92.20;;;;;;5013547;28;19952;-23
2022/09/24 13:19:45;;;;;;;;;;;17.60;92.20;;;;;;5013311;28;19905;-23
2022/09/24 13:22:26;;;;;;;;;;;17.60;92.20;;;;;;5013520;28;19906;-23
2022/09/24 13:25:03;;;;;;;;;;;17.60;92.20;;;;;;5013514;28;19912;-23
2022/09/24 13:27:28;;;;;;;;;;;17.60;92.10;;;;;;5013540;28;20335;-23
2022/09/24 13:30:14;;;;;;;;;;;17.60;92.20;;;;;;5013330;28;19997;-24
2022/09/24 13:33:00;;;;;;;;;;;17.60;92.10;;;;;;5013515;28;19913;-23
2022/09/24 13:35:29;;;;;;;;;;;17.60;92.10;;;;;;5013365;28;19912;-23
2022/09/24 13:38:05;;;;;;;;;;;17.60;92.00;;;;;;5011992;28;20355;-24
2022/09/24 13:40:34;;;;;;;;;;;17.60;92.00;;;;;;5012124;28;19956;-24
2022/09/24 13:43:05;;;;;;;;;;;17.60;92.00;;;;;;5013321;28;19960;-23
2022/09/24 13:45:32;;;;;;;;;;;17.60;92.00;;;;;;5013347;28;19905;-23
2022/09/24 13:48:00;;;;;;;;;;;17.60;92.10;;;;;;5013192;28;19912;-23
2022/09/24 13:50:28;;;;;;;;;;;17.60;92.00;;;;;;5012966;28;19905;-23
2022/09/24 13:52:56;;;;;;;;;;;17.60;92.10;;;;;;5013210;28;19910;-29
2022/09/24 13:55:25;;;;;;;;;;;17.60;92.10;;;;;;5013273;28;19913;-23
2022/09/24 13:57:50;;;;;;;;;;;17.60;92.10;;;;;;5012042;28;20358;-23
2022/09/24 14:00:16;;;;;;;;;;;17.60;92.10;;;;;;5013134;28;19995;-23
2022/09/24 14:02:43;;;;;;;;;;;17.60;92.10;;;;;;5013887;28;19905;-23
2022/09/24 14:05:16;;;;;;;;;;;17.60;92.10;;;;;;5015010;28;19905;-23
2022/09/24 14:07:50;;;;;;;;;;;17.60;92.10;;;;;;5012799;28;19912;-23
2022/09/24 14:10:16;;;;;;;;;;;17.60;92.10;;;;;;5012898;28;19960;-23
2022/09/24 14:12:41;;;;;;;;;;;17.60;92.10;;;;;;5012961;28;20318;-24
2022/09/24 14:15:14;;;;;;;;;;;17.60;92.10;;;;;;5012795;28;20355;-23
2022/09/24 14:17:40;;;;;;;;;;;17.60;92.10;;;;;;5012649;28;19910;-23
2022/09/24 14:20:11;;;;;;;;;;;17.60;92.10;;;;;;5012396;28;20007;-23
2022/09/24 14:22:40;;;;;;;;;;;17.70;92.10;;;;;;5012973;28;19905;-23
2022/09/24 14:25:08;;;;;;;;;;;17.70;92.20;;;;;;5016150;28;19945;-23
2022/09/24 14:27:35;;;;;;;;;;;17.60;92.10;;;;;;5016739;28;19905;-23
2022/09/24 14:30:02;;;;;;;;;;;17.70;92.10;;;;;;5016459;28;19909;-23
2022/09/24 14:32:28;;;;;;;;;;;17.60;92.20;;;;;;5016641;28;20016;-23
2022/09/24 14:34:55;;;;;;;;;;;17.70;92.10;;;;;;5016535;28;19996;-23
2022/09/24 14:37:25;;;;;;;;;;;17.60;92.10;;;;;;5016559;28;19905;-23
2022/09/24 14:39:56;;;;;;;;;;;17.70;92.20;;;;;;5016378;28;20378;-23